createdAt,value
2017-12-28T00:00:58.088Z,3.72
2017-12-28T00:01:58.151Z,3.64
2017-12-28T00:02:58.174Z,3.57
2017-12-28T00:03:58.213Z,3.64
2017-12-28T00:04:58.262Z,3.76
2017-12-28T00:05:58.300Z,3.79
2017-12-28T00:06:58.360Z,3.76
2017-12-28T00:07:58.384Z,3.80
2017-12-28T00:08:58.425Z,3.79
2017-12-28T00:09:58.933Z,3.78
2017-12-28T00:10:58.508Z,3.75
2017-12-28T00:11:58.566Z,3.75
2017-12-28T00:12:58.591Z,3.65
2017-12-28T00:13:58.633Z,3.71
2017-12-28T00:14:58.680Z,3.67
2017-12-28T00:15:58.715Z,3.78
2017-12-28T00:16:58.778Z,3.78
2017-12-28T00:17:58.801Z,3.75
2017-12-28T00:18:58.841Z,3.76
2017-12-28T00:19:58.883Z,3.78
2017-12-28T00:20:58.926Z,3.72
2017-12-28T00:21:59.013Z,3.80
2017-12-28T00:22:59.010Z,3.78
2017-12-28T00:23:59.050Z,3.79
2017-12-28T00:24:59.092Z,3.75
2017-12-28T00:25:59.137Z,3.78
2017-12-28T00:26:59.193Z,3.78
2017-12-28T00:27:59.246Z,3.80
2017-12-28T00:28:59.276Z,3.76
2017-12-28T00:29:59.327Z,3.76
2017-12-28T00:30:59.341Z,3.83
2017-12-28T00:31:59.384Z,3.78
2017-12-28T00:32:59.426Z,3.79
2017-12-28T00:33:59.487Z,3.82
2017-12-28T00:34:59.509Z,3.72
2017-12-28T00:35:59.554Z,3.78
2017-12-28T00:36:59.596Z,3.72
2017-12-28T00:37:59.638Z,3.76
2017-12-28T00:38:59.694Z,3.78
2017-12-28T00:39:59.720Z,3.75
2017-12-28T00:40:59.765Z,3.82
2017-12-28T00:41:59.803Z,3.76
2017-12-28T00:42:59.846Z,3.76
2017-12-28T00:43:59.906Z,3.67
2017-12-28T00:44:59.948Z,3.67
2017-12-28T00:45:59.977Z,3.68
2017-12-28T00:47:00.016Z,3.75
2017-12-28T00:48:00.056Z,3.76
2017-12-28T00:49:00.097Z,3.82
2017-12-28T00:50:00.159Z,3.80
2017-12-28T00:51:00.181Z,3.80
2017-12-28T00:52:00.229Z,3.85
2017-12-28T00:53:00.267Z,3.94
2017-12-28T00:54:00.307Z,3.79
2017-12-28T00:55:00.367Z,3.85
2017-12-28T00:56:00.392Z,3.82
2017-12-28T00:57:00.431Z,3.92
2017-12-28T00:58:00.477Z,3.90
2017-12-28T00:59:00.515Z,3.89
2017-12-28T01:00:00.575Z,3.86
2017-12-28T01:01:00.599Z,3.90
2017-12-28T01:02:00.646Z,3.79
2017-12-28T01:03:00.683Z,3.89
2017-12-28T01:04:00.730Z,3.83
2017-12-28T01:05:00.790Z,3.83
2017-12-28T01:06:00.808Z,3.85
2017-12-28T01:07:00.849Z,3.78
2017-12-28T01:08:00.893Z,3.85
2017-12-28T01:09:00.934Z,3.89
2017-12-28T01:10:00.995Z,3.80
2017-12-28T01:11:01.018Z,3.79
2017-12-28T01:12:01.059Z,3.89
2017-12-28T01:13:01.101Z,3.89
2017-12-28T01:14:01.146Z,3.97
2017-12-28T01:15:01.203Z,3.89
2017-12-28T01:16:01.236Z,3.92
2017-12-28T01:17:01.287Z,3.88
2017-12-28T01:18:01.313Z,3.90
2017-12-28T01:19:01.352Z,3.92
2017-12-28T01:20:01.395Z,3.85
2017-12-28T01:21:01.453Z,3.79
2017-12-28T01:22:01.498Z,3.85
2017-12-28T01:23:01.521Z,3.90
2017-12-28T01:24:01.563Z,3.72
2017-12-28T01:25:01.606Z,3.88
2017-12-28T01:26:01.645Z,3.88
2017-12-28T01:27:01.712Z,3.90
2017-12-28T01:28:01.731Z,3.96
2017-12-28T01:29:01.780Z,3.90
2017-12-28T01:30:01.816Z,3.85
2017-12-28T01:31:01.859Z,3.94
2017-12-28T01:32:01.921Z,3.89
2017-12-28T01:33:01.940Z,3.85
2017-12-28T01:34:01.983Z,3.85
2017-12-28T01:35:02.025Z,3.76
2017-12-28T01:36:02.068Z,3.72
2017-12-28T01:37:02.127Z,3.79
2017-12-28T01:38:02.150Z,3.75
2017-12-28T01:39:02.192Z,3.70
2017-12-28T01:40:02.234Z,3.72
2017-12-28T01:41:02.277Z,3.78
2017-12-28T01:42:02.339Z,3.75
2017-12-28T01:43:02.359Z,3.71
2017-12-28T01:44:02.403Z,3.70
2017-12-28T01:45:02.471Z,3.64
2017-12-28T01:46:02.493Z,3.54
2017-12-28T01:47:02.527Z,3.68
2017-12-28T01:48:02.586Z,3.65
2017-12-28T01:49:02.616Z,3.71
2017-12-28T01:50:02.654Z,3.71
2017-12-28T01:51:02.695Z,3.75
2017-12-28T01:52:02.740Z,3.79
2017-12-28T01:53:02.803Z,3.79
2017-12-28T01:54:02.825Z,3.68
2017-12-28T01:55:02.865Z,3.76
2017-12-28T01:56:02.906Z,3.75
2017-12-28T01:57:02.949Z,3.72
2017-12-28T01:58:03.007Z,3.75
2017-12-28T01:59:03.032Z,3.67
2017-12-28T02:00:03.074Z,3.78
2017-12-28T02:01:03.116Z,3.82
2017-12-28T02:02:03.159Z,3.94
2017-12-28T02:03:03.220Z,3.97
2017-12-28T02:04:03.243Z,3.98
2017-12-28T02:05:03.287Z,3.96
2017-12-28T02:06:03.348Z,3.92
2017-12-28T02:07:03.369Z,4.00
2017-12-28T02:08:03.410Z,3.96
2017-12-28T02:09:03.453Z,3.90
2017-12-28T02:10:03.496Z,3.90
2017-12-28T02:11:03.556Z,3.82
2017-12-28T02:12:03.592Z,3.85
2017-12-28T02:13:03.620Z,3.76
2017-12-28T02:14:03.664Z,3.80
2017-12-28T02:15:03.704Z,3.89
2017-12-28T02:16:03.761Z,3.85
2017-12-28T02:17:03.806Z,3.90
2017-12-28T02:18:03.842Z,3.88
2017-12-28T02:19:03.872Z,3.97
2017-12-28T02:20:03.915Z,3.89
2017-12-28T02:21:03.960Z,3.96
2017-12-28T02:22:04.019Z,3.90
2017-12-28T02:23:04.041Z,3.94
2017-12-28T02:24:04.090Z,3.88
2017-12-28T02:25:04.124Z,3.82
2017-12-28T02:26:04.166Z,3.86
2017-12-28T02:27:04.224Z,3.86
2017-12-28T02:28:04.267Z,3.94
2017-12-28T02:29:05.234Z,3.83
2017-12-28T02:30:04.347Z,3.79
2017-12-28T02:31:04.375Z,3.96
2017-12-28T02:32:04.418Z,3.89
2017-12-28T02:33:04.478Z,3.80
2017-12-28T02:34:04.502Z,3.85
2017-12-28T02:35:04.542Z,3.85
2017-12-28T02:36:04.585Z,3.89
2017-12-28T02:37:04.628Z,3.82
2017-12-28T02:38:04.690Z,3.82
2017-12-28T02:39:04.711Z,3.80
2017-12-28T02:40:04.757Z,3.89
2017-12-28T02:41:04.799Z,3.89
2017-12-28T02:42:04.846Z,3.72
2017-12-28T02:43:04.896Z,3.82
2017-12-28T02:44:04.919Z,3.70
2017-12-28T02:45:04.961Z,3.72
2017-12-28T02:46:05.003Z,3.79
2017-12-28T02:47:05.045Z,3.72
2017-12-28T02:48:05.112Z,3.76
2017-12-28T02:50:41.417Z,3.71
2017-12-28T02:51:41.440Z,3.68
2017-12-28T02:52:41.481Z,3.61
2017-12-28T02:53:41.539Z,3.67
2017-12-28T02:54:41.566Z,3.76
2017-12-28T02:55:41.608Z,3.68
2017-12-28T02:56:41.648Z,3.76
2017-12-28T02:57:41.688Z,3.72
2017-12-28T02:58:41.746Z,3.76
2017-12-28T02:59:41.783Z,3.80
2017-12-28T03:00:41.820Z,3.83
2017-12-28T03:01:41.856Z,3.89
2017-12-28T03:02:41.896Z,3.82
2017-12-28T03:03:41.954Z,3.72
2017-12-28T03:06:18.585Z,3.79
2017-12-28T03:07:18.608Z,3.71
2017-12-28T03:08:18.651Z,3.80
2017-12-28T03:09:18.698Z,3.71
2017-12-28T03:10:18.752Z,3.78
2017-12-28T03:11:18.777Z,3.72
2017-12-28T03:12:18.816Z,3.78
2017-12-28T03:13:18.881Z,3.80
2017-12-28T03:14:18.900Z,3.78
2017-12-28T03:15:18.941Z,3.78
2017-12-28T03:16:18.982Z,3.71
2017-12-28T03:17:19.026Z,3.67
2017-12-28T03:18:19.089Z,3.64
2017-12-28T03:19:19.106Z,3.71
2017-12-28T03:20:19.147Z,3.70
2017-12-28T03:21:19.194Z,3.65
2017-12-28T03:22:19.234Z,3.72
2017-12-28T03:23:19.288Z,3.72
2017-12-28T03:24:19.314Z,3.80
2017-12-28T03:25:19.355Z,3.78
2017-12-28T03:26:19.398Z,3.75
2017-12-28T03:27:19.460Z,3.72
2017-12-28T03:28:19.476Z,3.78
2017-12-28T03:29:19.522Z,3.72
2017-12-28T03:30:19.563Z,3.68
2017-12-28T03:31:19.617Z,3.70
2017-12-28T03:32:19.664Z,3.68
2017-12-28T03:33:19.690Z,3.70
2017-12-28T03:34:19.729Z,3.76
2017-12-28T03:35:19.770Z,3.80
2017-12-28T03:36:19.819Z,3.76
2017-12-28T03:37:19.872Z,3.71
2017-12-28T03:38:19.896Z,3.76
2017-12-28T03:39:19.936Z,3.64
2017-12-28T03:40:19.994Z,3.70
2017-12-28T03:41:20.019Z,3.67
2017-12-28T03:42:20.064Z,3.65
2017-12-28T03:43:20.107Z,3.65
2017-12-28T03:44:20.166Z,3.60
2017-12-28T03:45:20.188Z,3.58
2017-12-28T03:46:20.232Z,3.49
2017-12-28T03:47:20.272Z,3.40
2017-12-28T03:48:20.312Z,3.44
2017-12-28T03:49:20.915Z,3.42
2017-12-28T03:50:20.395Z,3.34
2017-12-28T03:51:20.434Z,3.36
2017-12-28T03:52:20.477Z,3.36
2017-12-28T03:53:20.520Z,3.24
2017-12-28T03:54:20.580Z,3.25
2017-12-28T03:55:20.600Z,3.20
2017-12-28T03:56:20.643Z,3.28
2017-12-28T03:57:20.684Z,3.30
2017-12-28T03:58:20.741Z,3.28
2017-12-28T03:59:20.767Z,3.25
2017-12-28T04:00:20.806Z,3.33
2017-12-28T04:01:20.864Z,3.25
2017-12-28T04:02:20.889Z,3.33
2017-12-28T04:03:20.931Z,3.30
2017-12-28T04:04:20.979Z,3.31
2017-12-28T04:05:21.016Z,3.34
2017-12-28T04:06:21.073Z,3.34
2017-12-28T04:07:21.094Z,3.33
2017-12-28T04:08:21.138Z,3.33
2017-12-28T04:09:21.180Z,3.30
2017-12-28T04:10:21.220Z,3.36
2017-12-28T04:11:21.277Z,3.34
2017-12-28T04:12:21.300Z,3.39
2017-12-28T04:13:21.343Z,3.30
2017-12-28T04:14:21.394Z,3.28
2017-12-28T04:15:21.444Z,3.33
2017-12-28T04:16:21.483Z,3.43
2017-12-28T04:17:21.508Z,3.39
2017-12-28T04:18:21.550Z,3.34
2017-12-28T04:19:21.589Z,3.39
2017-12-28T04:20:21.632Z,3.33
2017-12-28T04:21:21.687Z,3.40
2017-12-28T04:22:21.715Z,3.44
2017-12-28T04:23:21.759Z,3.36
2017-12-28T04:24:21.795Z,3.33
2017-12-28T04:25:21.858Z,3.43
2017-12-28T04:26:21.878Z,3.42
2017-12-28T04:27:21.922Z,3.43
2017-12-28T04:28:21.981Z,3.42
2017-12-28T04:29:22.002Z,3.39
2017-12-28T04:30:22.062Z,3.47
2017-12-28T04:31:22.093Z,3.54
2017-12-28T04:32:22.125Z,3.52
2017-12-28T04:33:22.183Z,3.46
2017-12-28T04:34:22.215Z,3.49
2017-12-28T04:35:22.250Z,3.52
2017-12-28T04:36:22.293Z,3.53
2017-12-28T04:37:22.332Z,3.50
2017-12-28T04:38:22.392Z,3.50
2017-12-28T04:39:22.417Z,3.43
2017-12-28T04:40:22.457Z,3.52
2017-12-28T04:41:22.499Z,3.34
2017-12-28T04:42:22.542Z,3.39
2017-12-28T04:43:22.605Z,3.43
2017-12-28T04:44:22.621Z,3.42
2017-12-28T04:45:22.663Z,3.36
2017-12-28T04:46:22.703Z,3.36
2017-12-28T04:47:22.745Z,3.42
2017-12-28T04:48:22.803Z,3.43
2017-12-28T04:49:22.827Z,3.39
2017-12-28T04:50:22.886Z,3.33
2017-12-28T04:51:22.909Z,3.43
2017-12-28T04:52:22.952Z,3.39
2017-12-28T04:53:22.989Z,3.33
2017-12-28T04:54:23.037Z,3.36
2017-12-28T04:55:23.094Z,3.30
2017-12-28T04:56:23.118Z,3.21
2017-12-28T04:57:23.158Z,3.23
2017-12-28T04:58:23.198Z,3.21
2017-12-28T04:59:23.242Z,3.24
2017-12-28T05:00:23.298Z,3.18
2017-12-28T05:01:23.322Z,3.20
2017-12-28T05:02:23.363Z,3.18
2017-12-28T05:03:23.405Z,3.12
2017-12-28T05:04:23.446Z,3.21
2017-12-28T05:05:23.503Z,3.10
2017-12-28T05:06:23.547Z,3.13
2017-12-28T05:07:23.571Z,3.16
2017-12-28T05:08:23.612Z,3.02
2017-12-28T05:09:24.411Z,3.02
2017-12-28T05:10:23.700Z,3.00
2017-12-28T05:11:23.749Z,3.05
2017-12-28T05:12:23.804Z,2.97
2017-12-28T05:13:23.817Z,3.02
2017-12-28T05:14:23.861Z,3.03
2017-12-28T05:15:23.899Z,3.02
2017-12-28T05:16:23.960Z,2.95
2017-12-28T05:17:23.982Z,3.00
2017-12-28T05:18:24.024Z,3.06
2017-12-28T05:19:24.066Z,2.95
2017-12-28T05:20:24.104Z,3.05
2017-12-28T05:21:24.161Z,3.06
2017-12-28T05:22:24.186Z,2.95
2017-12-28T05:23:24.228Z,2.94
2017-12-28T05:24:24.273Z,2.97
2017-12-28T05:25:24.309Z,2.94
2017-12-28T05:26:24.366Z,2.98
2017-12-28T05:27:24.395Z,2.94
2017-12-28T05:28:24.436Z,2.94
2017-12-28T05:29:24.474Z,3.00
2017-12-28T05:30:24.520Z,3.02
2017-12-28T05:31:24.585Z,3.02
2017-12-28T05:32:24.598Z,3.00
2017-12-28T05:33:24.656Z,2.92
2017-12-28T05:34:24.680Z,2.95
2017-12-28T05:37:01.263Z,2.89
2017-12-28T05:38:01.285Z,2.91
2017-12-28T05:39:01.353Z,2.92
2017-12-28T05:40:01.370Z,2.94
2017-12-28T05:41:01.408Z,2.91
2017-12-28T05:42:01.449Z,2.91
2017-12-28T05:43:01.493Z,2.92
2017-12-28T05:44:01.548Z,2.91
2017-12-28T05:45:01.578Z,2.88
2017-12-28T05:46:01.610Z,2.84
2017-12-28T05:47:01.655Z,2.91
2017-12-28T05:48:01.697Z,2.89
2017-12-28T05:49:01.754Z,2.88
2017-12-28T05:50:01.778Z,2.76
2017-12-28T05:51:01.818Z,2.89
2017-12-28T05:52:01.864Z,2.82
2017-12-28T05:53:01.900Z,2.82
2017-12-28T05:54:01.969Z,2.74
2017-12-28T05:55:01.988Z,2.77
2017-12-28T05:56:02.025Z,2.77
2017-12-28T05:57:02.066Z,2.77
2017-12-28T05:58:02.111Z,2.79
2017-12-28T05:59:02.163Z,2.74
2017-12-28T06:00:02.206Z,2.76
2017-12-28T06:01:02.235Z,2.73
2017-12-28T06:02:02.274Z,2.71
2017-12-28T06:03:02.318Z,2.71
2017-12-28T06:04:02.358Z,2.73
2017-12-28T06:05:02.412Z,2.59
2017-12-28T06:06:02.433Z,2.63
2017-12-28T06:07:02.481Z,2.63
2017-12-28T06:08:02.518Z,2.59
2017-12-28T06:09:02.555Z,2.59
2017-12-28T06:10:02.613Z,2.58
2017-12-28T06:11:02.639Z,2.55
2017-12-28T06:12:02.689Z,2.49
2017-12-28T06:13:02.719Z,2.49
2017-12-28T06:14:02.761Z,2.51
2017-12-28T06:15:02.817Z,2.49
2017-12-28T06:16:02.862Z,2.48
2017-12-28T06:17:02.887Z,2.48
2017-12-28T06:18:02.923Z,2.53
2017-12-28T06:19:02.967Z,2.48
2017-12-28T06:20:03.006Z,2.44
2017-12-28T06:21:03.064Z,2.45
2017-12-28T06:22:03.089Z,2.49
2017-12-28T06:23:03.128Z,2.51
2017-12-28T06:24:03.171Z,2.53
2017-12-28T06:25:03.210Z,2.61
2017-12-28T06:26:03.264Z,2.58
2017-12-28T06:27:03.290Z,2.58
2017-12-28T06:28:03.332Z,2.61
2017-12-28T06:29:03.382Z,2.61
2017-12-28T06:30:03.415Z,2.55
2017-12-28T06:31:03.478Z,2.53
2017-12-28T06:32:03.494Z,2.59
2017-12-28T06:33:03.537Z,2.69
2017-12-28T06:34:03.577Z,2.64
2017-12-28T06:36:39.666Z,2.55
2017-12-28T06:37:39.694Z,2.56
2017-12-28T06:38:39.730Z,2.64
2017-12-28T06:39:39.789Z,2.66
2017-12-28T06:40:39.813Z,2.64
2017-12-28T06:41:39.881Z,2.63
2017-12-28T06:42:39.899Z,2.61
2017-12-28T06:43:39.941Z,2.61
2017-12-28T06:44:39.981Z,2.58
2017-12-28T06:45:40.023Z,2.59
2017-12-28T06:46:40.073Z,2.56
2017-12-28T06:47:40.097Z,2.55
2017-12-28T06:48:40.145Z,2.58
2017-12-28T06:49:40.180Z,2.61
2017-12-28T06:50:40.219Z,2.53
2017-12-28T06:51:40.277Z,2.55
2017-12-28T06:52:40.306Z,2.63
2017-12-28T06:53:40.341Z,2.58
2017-12-28T06:54:40.382Z,2.58
2017-12-28T06:55:40.422Z,2.63
2017-12-28T06:56:40.480Z,2.51
2017-12-28T06:57:40.505Z,2.61
2017-12-28T06:58:40.543Z,2.67
2017-12-28T06:59:40.584Z,2.64
2017-12-28T07:00:40.627Z,2.58
2017-12-28T07:01:40.684Z,2.64
2017-12-28T07:02:40.706Z,2.59
2017-12-28T07:03:40.764Z,2.67
2017-12-28T07:04:40.792Z,2.71
2017-12-28T07:07:16.904Z,2.59
2017-12-28T07:08:16.949Z,2.58
2017-12-28T07:09:16.988Z,2.67
2017-12-28T07:10:17.010Z,2.66
2017-12-28T07:11:17.067Z,2.63
2017-12-28T07:12:17.092Z,2.63
2017-12-28T07:13:17.132Z,2.67
2017-12-28T07:14:17.188Z,2.61
2017-12-28T07:15:17.212Z,2.56
2017-12-28T07:16:17.255Z,2.58
2017-12-28T07:17:17.294Z,2.55
2017-12-28T07:18:17.333Z,2.58
2017-12-28T07:19:17.391Z,2.55
2017-12-28T07:20:17.433Z,2.59
2017-12-28T07:21:17.456Z,2.58
2017-12-28T07:22:17.496Z,2.66
2017-12-28T07:23:17.544Z,2.58
2017-12-28T07:24:17.579Z,2.48
2017-12-28T07:25:17.636Z,2.61
2017-12-28T07:26:17.661Z,2.58
2017-12-28T07:27:17.700Z,2.53
2017-12-28T07:28:17.740Z,2.53
2017-12-28T07:29:17.781Z,2.52
2017-12-28T07:30:17.838Z,2.51
2017-12-28T07:31:17.862Z,2.46
2017-12-28T07:32:17.902Z,2.51
2017-12-28T07:33:17.943Z,2.49
2017-12-28T07:34:17.984Z,2.46
2017-12-28T07:35:18.041Z,2.51
2017-12-28T07:36:18.083Z,2.52
2017-12-28T07:37:18.106Z,2.52
2017-12-28T07:38:18.145Z,2.48
2017-12-28T07:39:18.187Z,2.48
2017-12-28T07:40:18.230Z,2.51
2017-12-28T07:41:18.301Z,2.46
2017-12-28T07:42:18.308Z,2.46
2017-12-28T07:43:18.350Z,2.48
2017-12-28T07:44:18.389Z,2.48
2017-12-28T07:45:18.432Z,2.55
2017-12-28T07:46:18.487Z,2.48
2017-12-28T07:47:18.527Z,2.40
2017-12-28T07:48:18.573Z,2.34
2017-12-28T07:49:18.596Z,2.52
2017-12-28T07:50:18.633Z,2.35
2017-12-28T07:51:18.675Z,2.35
2017-12-28T07:52:18.732Z,2.44
2017-12-28T07:53:18.774Z,2.38
2017-12-28T07:54:18.799Z,2.48
2017-12-28T07:55:18.890Z,2.51
2017-12-28T07:56:18.879Z,2.46
2017-12-28T07:57:18.936Z,2.52
2017-12-28T07:58:18.967Z,2.45
2017-12-28T07:59:18.998Z,2.45
2017-12-28T08:00:19.048Z,2.40
2017-12-28T08:01:19.081Z,2.44
2017-12-28T08:02:19.140Z,2.41
2017-12-28T08:03:19.207Z,2.31
2017-12-28T08:04:19.203Z,2.38
2017-12-28T08:05:19.245Z,2.38
2017-12-28T08:06:19.284Z,2.41
2017-12-28T08:07:19.340Z,2.35
2017-12-28T08:08:19.365Z,2.37
2017-12-28T08:09:19.407Z,2.31
2017-12-28T08:10:19.450Z,2.27
2017-12-28T08:11:19.488Z,2.31
2017-12-28T08:12:19.547Z,2.28
2017-12-28T08:13:19.584Z,2.27
2017-12-28T08:14:19.608Z,2.27
2017-12-28T08:15:19.652Z,2.26
2017-12-28T08:16:19.692Z,2.23
2017-12-28T08:17:19.731Z,2.20
2017-12-28T08:18:19.793Z,2.27
2017-12-28T08:19:19.813Z,2.19
2017-12-28T08:20:19.853Z,2.22
2017-12-28T08:21:19.893Z,2.26
2017-12-28T08:22:19.941Z,2.20
2017-12-28T08:23:19.995Z,2.17
2017-12-28T08:24:20.015Z,2.22
2017-12-28T08:25:20.056Z,2.26
2017-12-28T08:26:20.100Z,2.12
2017-12-28T08:27:20.136Z,2.20
2017-12-28T08:28:20.194Z,2.19
2017-12-28T08:29:20.218Z,2.15
2017-12-28T08:30:20.260Z,2.17
2017-12-28T08:31:20.298Z,2.19
2017-12-28T08:32:20.340Z,2.17
2017-12-28T08:33:20.404Z,2.17
2017-12-28T08:34:20.420Z,2.15
2017-12-28T08:35:20.462Z,2.16
2017-12-28T08:36:20.501Z,2.10
2017-12-28T08:37:20.542Z,2.20
2017-12-28T08:38:20.603Z,2.17
2017-12-28T08:39:20.622Z,2.10
2017-12-28T08:40:20.665Z,2.06
2017-12-28T08:41:20.702Z,2.06
2017-12-28T08:42:20.742Z,2.09
2017-12-28T08:43:20.802Z,2.17
2017-12-28T08:44:20.824Z,2.12
2017-12-28T08:45:20.865Z,2.13
2017-12-28T08:46:20.904Z,2.19
2017-12-28T08:47:20.948Z,2.10
2017-12-28T08:48:21.007Z,2.10
2017-12-28T08:49:21.031Z,2.04
2017-12-28T08:50:21.084Z,2.17
2017-12-28T08:52:57.410Z,2.16
2017-12-28T08:53:57.450Z,2.16
2017-12-28T08:54:57.476Z,2.16
2017-12-28T08:55:57.514Z,2.22
2017-12-28T08:56:57.553Z,2.13
2017-12-28T08:57:57.593Z,2.10
2017-12-28T08:58:57.649Z,2.15
2017-12-28T08:59:57.675Z,2.13
2017-12-28T09:00:57.727Z,2.10
2017-12-28T09:01:57.756Z,2.13
2017-12-28T09:02:57.790Z,2.04
2017-12-28T09:03:57.834Z,2.15
2017-12-28T09:04:57.896Z,2.16
2017-12-28T09:05:57.914Z,2.10
2017-12-28T09:06:57.957Z,2.16
2017-12-28T09:07:57.994Z,2.19
2017-12-28T09:08:58.035Z,2.15
2017-12-28T09:09:58.092Z,2.16
2017-12-28T09:10:58.119Z,2.16
2017-12-28T09:11:58.158Z,2.10
2017-12-28T09:12:58.197Z,2.16
2017-12-28T09:13:58.255Z,2.17
2017-12-28T09:14:58.277Z,2.16
2017-12-28T09:15:58.318Z,2.22
2017-12-28T09:16:58.373Z,2.16
2017-12-28T09:17:58.399Z,2.19
2017-12-28T09:18:58.439Z,2.19
2017-12-28T09:19:58.486Z,2.19
2017-12-28T09:20:58.536Z,2.20
2017-12-28T09:21:58.561Z,2.19
2017-12-28T09:22:58.601Z,2.20
2017-12-28T09:23:58.644Z,2.15
2017-12-28T09:24:58.684Z,2.12
2017-12-28T09:25:58.744Z,2.16
2017-12-28T09:26:58.769Z,2.19
2017-12-28T09:27:58.801Z,2.19
2017-12-28T09:28:58.849Z,2.27
2017-12-28T09:29:58.886Z,2.13
2017-12-28T09:30:58.943Z,2.22
2017-12-28T09:31:58.982Z,2.28
2017-12-28T09:32:59.006Z,2.27
2017-12-28T09:33:59.053Z,2.30
2017-12-28T09:34:59.088Z,2.31
2017-12-28T09:35:59.125Z,2.27
2017-12-28T09:36:59.181Z,2.30
2017-12-28T09:37:59.215Z,2.27
2017-12-28T09:38:59.249Z,2.28
2017-12-28T09:39:59.289Z,2.28
2017-12-28T09:40:59.332Z,2.30
2017-12-28T09:41:59.385Z,2.31
2017-12-28T09:42:59.410Z,2.28
2017-12-28T09:43:59.451Z,2.33
2017-12-28T09:44:59.491Z,2.35
2017-12-28T09:45:59.532Z,2.37
2017-12-28T09:46:59.589Z,2.38
2017-12-28T09:47:59.613Z,2.41
2017-12-28T09:48:59.652Z,2.41
2017-12-28T09:49:59.703Z,2.41
2017-12-28T09:50:59.734Z,2.37
2017-12-28T09:51:59.796Z,2.38
2017-12-28T09:52:59.816Z,2.53
2017-12-28T09:53:59.858Z,2.44
2017-12-28T09:54:59.895Z,2.46
2017-12-28T09:55:59.936Z,2.38
2017-12-28T09:56:59.995Z,2.46
2017-12-28T09:58:00.023Z,2.45
2017-12-28T09:59:00.068Z,2.46
2017-12-28T10:00:00.100Z,2.52
2017-12-28T10:01:00.148Z,2.48
2017-12-28T10:02:00.197Z,2.48
2017-12-28T10:03:00.221Z,2.48
2017-12-28T10:04:00.280Z,2.46
2017-12-28T10:05:00.305Z,2.48
2017-12-28T10:06:00.345Z,2.41
2017-12-28T10:07:00.383Z,2.52
2017-12-28T10:08:00.437Z,2.49
2017-12-28T10:09:00.482Z,2.51
2017-12-28T10:10:00.514Z,2.49
2017-12-28T10:11:00.548Z,2.56
2017-12-28T10:12:00.594Z,2.53
2017-12-28T10:13:00.628Z,2.58
2017-12-28T10:14:00.686Z,2.59
2017-12-28T10:15:00.709Z,2.59
2017-12-28T10:16:00.752Z,2.59
2017-12-28T10:17:00.797Z,2.59
2017-12-28T10:18:00.830Z,2.53
2017-12-28T10:19:00.898Z,2.61
2017-12-28T10:20:00.914Z,2.64
2017-12-28T10:21:00.968Z,2.59
2017-12-28T10:22:00.998Z,2.66
2017-12-28T10:23:01.035Z,2.64
2017-12-28T10:24:01.075Z,2.59
2017-12-28T10:25:01.135Z,2.63
2017-12-28T10:26:01.257Z,2.53
2017-12-28T10:27:01.199Z,2.56
2017-12-28T10:28:01.258Z,2.66
2017-12-28T10:29:01.280Z,2.56
2017-12-28T10:30:01.322Z,2.61
2017-12-28T10:31:01.386Z,2.63
2017-12-28T10:32:01.401Z,2.61
2017-12-28T10:33:01.445Z,2.53
2017-12-28T10:34:01.482Z,2.53
2017-12-28T10:35:01.528Z,2.51
2017-12-28T10:36:01.580Z,2.53
2017-12-28T10:37:01.623Z,2.61
2017-12-28T10:38:01.646Z,2.63
2017-12-28T10:39:01.696Z,2.58
2017-12-28T10:40:01.740Z,2.58
2017-12-28T10:41:01.771Z,2.59
2017-12-28T10:42:01.827Z,2.56
2017-12-28T10:43:01.853Z,2.59
2017-12-28T10:44:01.893Z,2.55
2017-12-28T10:45:01.933Z,2.55
2017-12-28T10:46:01.973Z,2.52
2017-12-28T10:47:02.029Z,2.45
2017-12-28T10:48:02.055Z,2.61
2017-12-28T10:49:02.095Z,2.55
2017-12-28T10:50:02.137Z,2.59
2017-12-28T10:51:02.179Z,2.51
2017-12-28T10:52:02.235Z,2.53
2017-12-28T10:53:02.258Z,2.53
2017-12-28T10:54:02.299Z,2.49
2017-12-28T10:55:02.350Z,2.51
2017-12-28T10:56:02.382Z,2.53
2017-12-28T10:57:02.436Z,2.52
2017-12-28T10:58:02.463Z,2.37
2017-12-28T10:59:02.503Z,2.46
2017-12-28T11:00:02.549Z,2.35
2017-12-28T11:01:02.585Z,2.40
2017-12-28T11:02:02.645Z,2.38
2017-12-28T11:03:02.669Z,2.26
2017-12-28T11:04:02.712Z,2.38
2017-12-28T11:05:02.748Z,2.40
2017-12-28T11:06:02.805Z,2.34
2017-12-28T11:07:02.829Z,2.38
2017-12-28T11:08:02.870Z,2.40
2017-12-28T11:09:02.913Z,2.40
2017-12-28T11:10:02.952Z,2.35
2017-12-28T11:11:03.014Z,2.28
2017-12-28T11:12:03.032Z,2.31
2017-12-28T11:13:03.090Z,2.23
2017-12-28T11:14:03.115Z,2.23
2017-12-28T11:15:03.154Z,2.27
2017-12-28T11:16:03.194Z,2.31
2017-12-28T11:17:03.254Z,2.31
2017-12-28T11:18:03.276Z,2.27
2017-12-28T11:19:03.380Z,2.28
2017-12-28T11:20:03.359Z,2.23
2017-12-28T11:21:03.402Z,2.38
2017-12-28T11:22:03.445Z,2.31
2017-12-28T11:23:03.478Z,2.31
2017-12-28T11:24:03.535Z,2.22
2017-12-28T11:25:03.560Z,2.26
2017-12-28T11:26:03.603Z,2.27
2017-12-28T11:27:03.641Z,2.28
2017-12-28T11:28:03.696Z,2.34
2017-12-28T11:29:03.746Z,2.20
2017-12-28T11:30:03.767Z,2.30
2017-12-28T11:31:03.808Z,2.28
2017-12-28T11:32:03.846Z,2.27
2017-12-28T11:33:03.888Z,2.16
2017-12-28T11:34:03.944Z,2.17
2017-12-28T11:35:04.545Z,2.22
2017-12-28T11:36:04.007Z,2.26
2017-12-28T11:37:04.048Z,2.27
2017-12-28T11:38:04.092Z,2.20
2017-12-28T11:39:04.155Z,2.27
2017-12-28T11:40:04.174Z,2.20
2017-12-28T11:41:04.216Z,2.22
2017-12-28T11:42:04.253Z,2.31
2017-12-28T11:43:04.293Z,2.20
2017-12-28T11:44:04.351Z,2.27
2017-12-28T11:45:04.379Z,2.30
2017-12-28T11:46:04.417Z,2.28
2017-12-28T11:47:04.457Z,2.27
2017-12-28T11:48:04.504Z,2.40
2017-12-28T11:49:04.562Z,2.31
2017-12-28T11:50:04.580Z,2.27
2017-12-28T11:51:04.616Z,2.40
2017-12-28T11:52:04.658Z,2.35
2017-12-28T11:53:04.696Z,2.40
2017-12-28T11:54:04.760Z,2.38
2017-12-28T11:55:04.783Z,2.31
2017-12-28T11:56:04.820Z,2.55
2017-12-28T11:57:04.877Z,2.40
2017-12-28T11:58:04.906Z,2.49
2017-12-28T11:59:04.942Z,2.37
2017-12-28T12:00:04.986Z,2.27
2017-12-28T12:01:05.041Z,2.22
2017-12-28T12:02:05.070Z,2.26
2017-12-28T12:03:05.106Z,2.13
2017-12-28T12:04:05.151Z,2.13
2017-12-28T12:05:05.188Z,2.23
2017-12-28T12:06:05.246Z,2.22
2017-12-28T12:07:05.287Z,2.22
2017-12-28T12:08:05.313Z,2.27
2017-12-28T12:09:05.351Z,2.23
2017-12-28T12:10:05.392Z,2.31
2017-12-28T12:11:05.431Z,2.12
2017-12-28T12:12:05.490Z,2.20
2017-12-28T12:13:05.519Z,2.30
2017-12-28T12:14:05.557Z,2.28
2017-12-28T12:15:05.594Z,2.19
2017-12-28T12:16:05.635Z,2.13
2017-12-28T12:17:05.704Z,2.17
2017-12-28T12:18:05.721Z,2.08
2017-12-28T12:19:05.772Z,2.10
2017-12-28T12:20:05.799Z,2.09
2017-12-28T12:21:05.841Z,2.17
2017-12-28T12:22:05.900Z,2.08
2017-12-28T12:23:05.920Z,2.09
2017-12-28T12:24:05.960Z,2.13
2017-12-28T12:25:06.003Z,2.08
2017-12-28T12:26:06.050Z,2.06
2017-12-28T12:27:06.102Z,2.15
2017-12-28T12:28:06.126Z,2.10
2017-12-28T12:29:06.165Z,2.06
2017-12-28T12:30:06.205Z,2.10
2017-12-28T12:31:06.246Z,2.09
2017-12-28T12:32:06.304Z,1.99
2017-12-28T12:33:06.326Z,2.04
2017-12-28T12:34:06.368Z,2.04
2017-12-28T12:35:06.426Z,2.02
2017-12-28T12:36:06.448Z,2.02
2017-12-28T12:37:06.492Z,1.99
2017-12-28T12:38:06.530Z,1.90
2017-12-28T12:39:06.573Z,1.89
2017-12-28T12:40:06.627Z,1.91
2017-12-28T12:41:06.651Z,1.97
2017-12-28T12:42:06.696Z,1.91
2017-12-28T12:43:06.731Z,1.98
2017-12-28T12:44:06.776Z,1.97
2017-12-28T12:45:06.830Z,1.99
2017-12-28T12:46:06.856Z,1.91
2017-12-28T12:47:06.896Z,1.89
2017-12-28T12:48:06.942Z,1.85
2017-12-28T12:49:06.991Z,1.78
2017-12-28T12:50:07.020Z,1.78
2017-12-28T12:51:07.056Z,1.93
2017-12-28T12:52:07.099Z,1.91
2017-12-28T12:53:07.138Z,2.01
2017-12-28T12:54:07.202Z,1.94
2017-12-28T12:55:07.221Z,1.99
2017-12-28T12:56:07.259Z,1.99
2017-12-28T12:57:07.335Z,1.97
2017-12-28T12:58:07.341Z,1.93
2017-12-28T12:59:07.399Z,1.91
2017-12-28T13:00:07.436Z,2.04
2017-12-28T13:01:07.477Z,1.93
2017-12-28T13:02:07.503Z,1.97
2017-12-28T13:03:07.543Z,1.94
2017-12-28T13:04:07.583Z,1.94
2017-12-28T13:05:07.626Z,1.97
2017-12-28T13:06:07.684Z,1.99
2017-12-28T13:07:07.704Z,1.97
2017-12-28T13:08:07.745Z,1.93
2017-12-28T13:09:07.789Z,1.97
2017-12-28T13:10:07.844Z,2.06
2017-12-28T13:11:07.888Z,2.09
2017-12-28T13:12:07.908Z,2.09
2017-12-28T13:13:07.949Z,2.10
2017-12-28T13:14:07.999Z,2.09
2017-12-28T13:15:08.029Z,2.04
2017-12-28T13:16:08.092Z,2.06
2017-12-28T13:17:08.152Z,1.98
2017-12-28T13:18:08.151Z,2.01
2017-12-28T13:19:08.192Z,2.08
2017-12-28T13:20:08.240Z,2.01
2017-12-28T13:21:08.291Z,1.94
2017-12-28T13:22:08.316Z,1.93
2017-12-28T13:23:08.361Z,1.98
2017-12-28T13:24:08.396Z,1.99
2017-12-28T13:25:08.438Z,2.02
2017-12-28T13:26:08.494Z,1.99
2017-12-28T13:27:08.515Z,1.94
2017-12-28T13:28:08.572Z,1.94
2017-12-28T13:29:08.598Z,1.91